Flight Track Log - Related Links

Times and Time Zones

All times are in EDT time to prevent confusion due to time zone crossing. See the WAE5 flight status page for this flight to view local times or setup timezone preferences in your user account.


Time Position Orientation Groundspeed Altitude Reporting Facility
EDT Latitude Longitude Course Direction KTS MPH feet Rate Location/Type
Wed 08:47:32 AM 40.7625 -111.9631 288° West 106 122 4,800  Level Salt Lake Center
Wed 08:48:57 AM 40.7739 -112.0103 288° West 159 183 5,800 699 Climbing Salt Lake Center
Wed 08:49:15 AM 40.7825 -112.0144 340° North 157 181 6,000 800 Climbing Salt Lake Center
Wed 08:49:57 AM 40.8075 -112.0500 313° West 159 183 6,600 787 Climbing Salt Lake Center
Wed 08:50:16 AM 40.8147 -112.0531 342° North 156 180 6,800 982 Climbing Salt Lake Center
Wed 08:50:52 AM 40.8414 -112.0694 335° Northwest 149 171 7,500 1,082 Climbing Salt Lake Center
Wed 08:51:17 AM 40.8597 -112.0706 357° North 142 163 7,900 716 Climbing Salt Lake Center
Wed 08:51:59 AM 40.8881 -112.0764 351° North 147 169 8,300 500 Climbing Salt Lake Center
Wed 08:52:17 AM 40.9000 -112.0769 358° North 146 168 8,400 608 Climbing Salt Lake Center
Wed 08:53:18 AM 40.9422 -112.0906 346° North 154 177 9,100 689 Climbing Salt Lake Center
Wed 08:54:19 AM 40.9814 -112.0983 351° North 143 165 9,800 545 Climbing Salt Lake Center
Wed 08:55:19 AM 41.0228 -112.1086 349° North 151 174 10,200 545 Climbing Salt Lake Center
Wed 08:56:20 AM 41.0658 -112.1156 353° North 154 177 10,900 443 Climbing Salt Lake Center
Wed 08:57:21 AM 41.1114 -112.1269 349° North 168 193 11,100 50 Climbing Salt Lake Center
Wed 08:58:21 AM 41.1603 -112.1417 347° North 179 206 11,000 -50 Descending Salt Lake Center
Wed 08:59:22 AM 41.2103 -112.1600 345° North 184 212 11,000  Level Salt Lake Center
Wed 09:00:23 AM 41.2617 -112.1781 345° North 189 217 11,000  Level Salt Lake Center
Wed 09:01:24 AM 41.3136 -112.1961 345° North 193 222 11,000  Level Salt Lake Center
Wed 09:02:24 AM 41.3642 -112.2136 345° North 187 215 11,000  Level Salt Lake Center
Wed 09:03:25 AM 41.4167 -112.2325 345° North 194 223 11,000  Level Salt Lake Center
Wed 09:04:26 AM 41.4697 -112.2506 346° North 196 226 11,000  Level Salt Lake Center
Wed 09:05:27 AM 41.5222 -112.2675 346° North 195 224 11,000 50 Level Salt Lake Center
Wed 09:06:27 AM 41.5739 -112.2889 343° North 195 224 11,100 50 Climbing Salt Lake Center
Wed 09:07:28 AM 41.6261 -112.3083 344° North 195 224 11,100 -49 Level Salt Lake Center
Wed 09:08:29 AM 41.6819 -112.3236 348° North 204 235 11,000 -49 Descending Salt Lake Center
Wed 09:09:30 AM 41.7364 -112.3361 350° North 201 231 11,000  Level Salt Lake Center
Wed 09:10:31 AM 41.7897 -112.3553 345° North 199 229 11,000  Level Salt Lake Center
Wed 09:11:31 AM 41.8436 -112.3719 347° North 199 229 11,000  Level Salt Lake Center
Wed 09:12:32 AM 41.9094 -112.3875 350° North 199 229 11,000  Level Salt Lake Center
Wed 09:13:33 AM 41.9631 -112.4033 348° North 199 229 11,000  Level Salt Lake Center
Wed 09:14:34 AM 42.0181 -112.4186 348° North 200 230 11,000  Level Salt Lake Center
Wed 09:15:35 AM 42.0717 -112.4364 346° North 200 230 11,000  Level Salt Lake Center
Wed 09:16:36 AM 42.1233 -112.4525 347° North 196 226 11,000 49 Level Salt Lake Center
Wed 09:17:37 AM 42.1744 -112.4678 348° North 192 221 11,100 98 Climbing Salt Lake Center
Wed 09:18:38 AM 42.2233 -112.4814 348° North 187 215 11,200  Climbing Salt Lake Center
Wed 09:19:39 AM 42.2703 -112.4936 349° North 179 206 11,100  Descending Salt Lake Center
Wed 09:20:40 AM 42.3172 -112.5031 352° North 174 200 11,200 49 Climbing Salt Lake Center
Wed 09:21:41 AM 42.3622 -112.5144 349° North 169 194 11,200 -49 Level Salt Lake Center
Wed 09:22:42 AM 42.4078 -112.5239 351° North 167 192 11,100  Descending Salt Lake Center
Wed 09:23:43 AM 42.4525 -112.5356 349° North 164 189 11,200  Climbing Salt Lake Center
Wed 09:24:44 AM 42.4967 -112.5456 351° North 163 188 11,100  Descending Salt Lake Center
Wed 09:25:45 AM 42.5508 -112.5592 350° North 164 189 11,200 49 Climbing Salt Lake Center
Wed 09:26:46 AM 42.5958 -112.5689 351° North 163 188 11,200  Level Salt Lake Center
Wed 09:27:47 AM 42.6403 -112.5803 349° North 163 188 11,200 -197 Level Salt Lake Center
Wed 09:28:48 AM 42.6856 -112.5914 350° North 165 190 10,800 -443 Descending Salt Lake Center
Wed 09:29:49 AM 42.7381 -112.6092 346° North 177 204 10,300 -492 Descending Salt Lake Center
Wed 09:30:50 AM 42.7878 -112.6008 North 184 212 9,800 -590 Descending Salt Lake Center
Wed 09:31:51 AM 42.8358 -112.5717 24° Northeast 191 220 9,100 -639 Descending Salt Lake Center
Wed 09:32:52 AM 42.8817 -112.5322 32° Northeast 183 211 8,500 -689 Descending Salt Lake Center
Wed 09:33:53 AM 42.9003 -112.5031 49° Northeast 169 194 7,700 -1,230 Descending Salt Lake Center
Wed 09:34:54 AM 42.9350 -112.5272 333° Northwest 139 160 6,000 -1,279 Descending Salt Lake Center
Wed 09:35:55 AM 42.9314 -112.5689 263° West 120 138 5,100 -885 Descending Salt Lake Center

Login

Don't have an account? Register now (free) for customized features, flight alerts, and more!